createdAt,value
2017-12-04T00:01:26.671Z,90.10
2017-12-04T00:03:54.177Z,90.10
2017-12-04T00:06:21.672Z,90.30
2017-12-04T00:08:49.596Z,90.40
2017-12-04T00:11:17.085Z,90.40
2017-12-04T00:13:44.572Z,90.40
2017-12-04T00:16:12.468Z,90.60
2017-12-04T00:18:39.968Z,90.70
2017-12-04T00:21:07.481Z,90.50
2017-12-04T00:23:35.823Z,90.50
2017-12-04T00:26:03.328Z,90.50
2017-12-04T00:28:30.825Z,90.70
2017-12-04T00:30:59.104Z,91.00
2017-12-04T00:33:26.597Z,90.90
2017-12-04T00:35:55.252Z,91.00
2017-12-04T00:38:22.753Z,90.90
2017-12-04T00:40:51.035Z,91.00
2017-12-04T00:43:19.300Z,91.20
2017-12-04T00:45:47.570Z,91.10
2017-12-04T00:48:15.828Z,91.00
2017-12-04T00:50:43.336Z,90.70
2017-12-04T00:53:10.845Z,90.80
2017-12-04T00:55:38.335Z,90.90
2017-12-04T00:58:05.853Z,90.90
2017-12-04T01:00:33.357Z,91.00
2017-12-04T01:03:01.644Z,90.80
2017-12-04T01:05:29.537Z,90.80
2017-12-04T01:07:57.804Z,91.00
2017-12-04T01:10:26.127Z,91.20
2017-12-04T01:12:54.460Z,91.20
2017-12-04T01:15:22.676Z,91.40
2017-12-04T01:17:50.176Z,91.40
2017-12-04T01:20:17.684Z,91.40
2017-12-04T01:22:45.180Z,91.60
2017-12-04T01:25:12.705Z,90.50
2017-12-04T01:27:40.228Z,91.60
2017-12-04T01:30:07.701Z,91.60
2017-12-04T01:32:35.228Z,91.70
2017-12-04T01:35:02.730Z,91.70
2017-12-04T01:37:30.240Z,91.80
2017-12-04T01:39:57.760Z,91.70
2017-12-04T01:42:25.265Z,91.70
2017-12-04T01:44:52.758Z,91.50
2017-12-04T01:47:20.266Z,91.40
2017-12-04T01:49:47.770Z,91.30
2017-12-04T01:52:15.266Z,91.10
2017-12-04T01:54:43.543Z,91.10
2017-12-04T01:57:11.805Z,91.10
2017-12-04T01:59:39.313Z,91.10
2017-12-04T02:02:06.808Z,91.00
2017-12-04T02:04:34.325Z,91.00
2017-12-04T02:07:01.902Z,90.70
2017-12-04T02:09:30.132Z,90.70
2017-12-04T02:11:58.388Z,90.70
2017-12-04T02:14:25.909Z,90.70
2017-12-04T02:16:53.415Z,90.70
2017-12-04T02:19:20.896Z,90.70
2017-12-04T02:21:48.412Z,90.90
2017-12-04T02:24:15.908Z,90.70
2017-12-04T02:26:44.182Z,90.70
2017-12-04T02:29:12.456Z,90.70
2017-12-04T02:31:40.759Z,90.70
2017-12-04T02:34:15.141Z,90.50
2017-12-04T02:36:43.430Z,90.70
2017-12-04T02:39:11.706Z,90.60
2017-12-04T02:41:39.974Z,90.70
2017-12-04T02:44:07.488Z,90.50
2017-12-04T02:46:35.745Z,90.70
2017-12-04T02:49:03.257Z,90.80
2017-12-04T02:51:30.753Z,90.90
2017-12-04T02:53:58.278Z,91.00
2017-12-04T02:56:25.781Z,91.20
2017-12-04T02:58:53.280Z,91.10
2017-12-04T03:01:20.781Z,91.20
2017-12-04T03:03:48.292Z,91.30
2017-12-04T03:06:16.568Z,91.60
2017-12-04T03:08:44.064Z,91.30
2017-12-04T03:11:12.328Z,91.60
2017-12-04T03:13:40.621Z,91.30
2017-12-04T03:16:08.885Z,91.60
2017-12-04T03:18:37.149Z,91.60
2017-12-04T03:21:04.653Z,91.30
2017-12-04T03:23:33.301Z,91.60
2017-12-04T03:26:00.805Z,91.20
2017-12-04T03:28:28.309Z,91.30
2017-12-04T03:30:55.826Z,91.30
2017-12-04T03:33:23.337Z,91.40
2017-12-04T03:35:50.852Z,91.40
2017-12-04T03:38:18.347Z,91.40
2017-12-04T03:40:45.849Z,91.50
2017-12-04T03:43:13.352Z,91.40
2017-12-04T03:45:41.257Z,91.30
2017-12-04T03:48:12.280Z,91.40
2017-12-04T03:50:40.173Z,91.30
2017-12-04T03:53:07.672Z,91.30
2017-12-04T03:55:35.181Z,91.40
2017-12-04T03:58:03.086Z,91.30
2017-12-04T04:00:30.576Z,91.40
2017-12-04T04:02:58.088Z,91.30
2017-12-04T04:05:25.596Z,91.30
2017-12-04T04:07:53.088Z,91.30
2017-12-04T04:10:20.617Z,91.30
2017-12-04T04:12:48.113Z,91.30
2017-12-04T04:15:15.609Z,91.30
2017-12-04T04:17:43.121Z,92.30
2017-12-04T04:20:10.616Z,91.30
2017-12-04T04:22:38.124Z,91.40
2017-12-04T04:25:06.401Z,91.70
2017-12-04T04:27:34.668Z,91.80
2017-12-04T04:30:02.173Z,91.60
2017-12-04T04:32:29.701Z,91.70
2017-12-04T04:34:57.961Z,92.20
2017-12-04T04:37:25.457Z,92.00
2017-12-04T04:39:52.969Z,92.00
2017-12-04T04:42:20.469Z,91.90
2017-12-04T04:44:47.984Z,91.90
2017-12-04T04:47:15.480Z,92.00
2017-12-04T04:49:42.997Z,91.90
2017-12-04T04:52:10.497Z,91.80
2017-12-04T04:54:37.997Z,91.70
2017-12-04T04:57:05.896Z,91.60
2017-12-04T04:59:33.417Z,91.60
2017-12-04T05:02:01.029Z,91.60
2017-12-04T05:04:29.294Z,91.60
2017-12-04T05:06:56.797Z,91.30
2017-12-04T05:09:24.300Z,91.20
2017-12-04T05:11:51.817Z,91.30
2017-12-04T05:14:19.336Z,91.20
2017-12-04T05:16:47.614Z,91.50
2017-12-04T05:19:15.873Z,91.40
2017-12-04T05:21:43.406Z,91.20
2017-12-04T05:24:10.892Z,91.20
2017-12-04T05:26:38.810Z,91.10
2017-12-04T05:31:35.083Z,90.90
2017-12-04T05:34:02.993Z,91.10
2017-12-04T05:36:31.307Z,91.50
2017-12-04T05:38:58.756Z,91.10
2017-12-04T05:41:26.273Z,91.20
2017-12-04T05:43:53.792Z,91.20
2017-12-04T05:46:21.706Z,91.20
2017-12-04T05:48:49.176Z,91.10
2017-12-04T05:51:17.437Z,91.30
2017-12-04T05:53:45.716Z,91.30
2017-12-04T05:56:13.981Z,91.30
2017-12-04T05:58:41.492Z,91.20
2017-12-04T06:01:09.385Z,91.30
2017-12-04T06:03:36.885Z,91.80
2017-12-04T06:06:04.825Z,91.80
2017-12-04T06:08:32.325Z,91.70
2017-12-04T06:10:59.837Z,91.80
2017-12-04T06:13:28.121Z,91.50
2017-12-04T06:15:55.625Z,92.60
2017-12-04T06:18:23.212Z,91.90
2017-12-04T06:20:50.781Z,90.70
2017-12-04T06:23:18.305Z,89.50
2017-12-04T06:25:46.389Z,90.30
2017-12-04T06:28:14.068Z,87.30
2017-12-04T06:30:41.624Z,87.90
2017-12-04T06:33:09.136Z,90.10
2017-12-04T06:35:37.762Z,90.20
2017-12-04T06:38:05.268Z,90.70
2017-12-04T06:40:32.768Z,90.70
2017-12-04T06:43:00.345Z,90.70
2017-12-04T06:45:27.837Z,90.90
2017-12-04T06:47:55.745Z,90.90
2017-12-04T06:50:23.337Z,91.00
2017-12-04T06:52:51.608Z,91.00
2017-12-04T06:55:19.136Z,91.20
2017-12-04T06:57:46.728Z,91.40
2017-12-04T07:00:14.220Z,91.50
2017-12-04T07:02:41.748Z,91.60
2017-12-04T07:05:09.249Z,91.50
2017-12-04T07:07:36.761Z,91.70
2017-12-04T07:10:04.265Z,91.80
2017-12-04T07:12:31.773Z,91.90
2017-12-04T07:14:59.274Z,91.80
2017-12-04T07:22:25.206Z,91.90
2017-12-04T07:24:52.707Z,91.60
2017-12-04T07:27:20.610Z,91.60
2017-12-04T07:29:48.283Z,91.60
2017-12-04T07:32:16.507Z,91.80
2017-12-04T07:34:45.166Z,91.70
2017-12-04T07:37:12.670Z,91.60
2017-12-04T07:39:40.932Z,91.90
2017-12-04T07:42:09.257Z,91.70
2017-12-04T07:44:37.489Z,91.70
2017-12-04T07:47:05.373Z,91.50
2017-12-04T07:49:32.868Z,91.50
2017-12-04T07:52:00.419Z,91.60
2017-12-04T07:54:27.916Z,91.60
2017-12-04T07:56:56.218Z,91.40
2017-12-04T07:59:24.490Z,91.40
2017-12-04T08:01:52.756Z,90.90
2017-12-04T08:04:21.032Z,90.80
2017-12-04T08:06:48.544Z,91.00
2017-12-04T08:09:16.513Z,90.90
2017-12-04T08:11:44.565Z,90.80
2017-12-04T08:14:12.932Z,90.80
2017-12-04T08:16:40.425Z,90.50
2017-12-04T08:19:07.926Z,90.40
2017-12-04T08:21:36.196Z,90.60
2017-12-04T08:24:03.753Z,90.20
2017-12-04T08:26:32.777Z,90.70
2017-12-04T08:29:00.292Z,90.80
2017-12-04T08:31:27.793Z,90.50
2017-12-04T08:33:55.289Z,90.30
2017-12-04T08:36:23.564Z,90.40
2017-12-04T08:38:51.084Z,90.00
2017-12-04T08:41:18.983Z,90.10
2017-12-04T08:43:46.477Z,89.60
2017-12-04T08:46:13.984Z,89.60
2017-12-04T08:48:41.481Z,89.80
2017-12-04T08:51:09.006Z,89.00
2017-12-04T08:53:36.497Z,89.90
2017-12-04T08:56:04.000Z,89.60
2017-12-04T08:58:32.273Z,90.00
2017-12-04T09:01:00.579Z,89.50
2017-12-04T09:03:28.079Z,89.10
2017-12-04T09:05:56.345Z,89.10
2017-12-04T09:08:23.857Z,89.50
2017-12-04T09:10:51.353Z,89.30
2017-12-04T09:13:18.862Z,89.00
2017-12-04T09:15:47.142Z,89.70
2017-12-04T09:18:15.414Z,89.50
2017-12-04T09:20:43.701Z,89.60
2017-12-04T09:23:11.202Z,89.20
2017-12-04T09:25:38.712Z,88.60
2017-12-04T09:28:06.993Z,89.50
2017-12-04T09:30:34.501Z,89.10
2017-12-04T09:33:02.006Z,89.70
2017-12-04T09:35:30.286Z,89.90
2017-12-04T09:37:57.797Z,89.00
2017-12-04T09:40:25.305Z,90.00
2017-12-04T09:42:52.825Z,89.60
2017-12-04T09:45:20.345Z,89.10
2017-12-04T09:47:47.891Z,88.60
2017-12-04T09:50:15.345Z,88.80
2017-12-04T09:52:43.624Z,88.30
2017-12-04T09:55:11.124Z,87.90
2017-12-04T09:57:38.625Z,88.40
2017-12-04T10:00:06.901Z,88.60
2017-12-04T10:02:35.170Z,88.70
2017-12-04T10:05:03.483Z,89.70
2017-12-04T10:07:31.712Z,89.90
2017-12-04T10:09:59.226Z,89.90
2017-12-04T10:12:26.728Z,88.30
2017-12-04T10:14:54.992Z,89.10
2017-12-04T10:17:22.916Z,88.70
2017-12-04T10:19:50.413Z,87.50
2017-12-04T10:22:17.908Z,87.70
2017-12-04T10:24:46.180Z,87.20
2017-12-04T10:27:14.465Z,88.40
2017-12-04T10:29:42.729Z,87.70
2017-12-04T10:32:10.993Z,87.00
2017-12-04T10:34:38.501Z,87.00
2017-12-04T10:37:06.777Z,87.30
2017-12-04T10:39:34.272Z,88.10
2017-12-04T10:42:01.836Z,87.00
2017-12-04T10:44:29.334Z,86.50
2017-12-04T10:46:57.605Z,88.20
2017-12-04T10:49:25.884Z,88.00
2017-12-04T10:51:54.148Z,87.50
2017-12-04T10:54:22.416Z,88.20
2017-12-04T10:56:50.326Z,86.80
2017-12-04T10:59:17.854Z,86.20
2017-12-04T11:01:46.128Z,86.90
2017-12-04T11:04:14.394Z,87.40
2017-12-04T11:06:41.909Z,87.50
2017-12-04T11:09:09.410Z,88.30
2017-12-04T11:11:36.905Z,88.50
2017-12-04T11:14:04.432Z,88.80
2017-12-04T11:16:31.929Z,89.50
2017-12-04T11:18:59.433Z,89.50
2017-12-04T11:21:26.936Z,89.30
2017-12-04T11:23:54.428Z,89.60
2017-12-04T11:26:21.961Z,90.00
2017-12-04T11:28:49.457Z,89.90
2017-12-04T11:31:16.952Z,89.90
2017-12-04T11:33:45.229Z,90.00
2017-12-04T11:36:13.498Z,90.00
2017-12-04T11:38:41.009Z,89.40
2017-12-04T11:41:08.522Z,90.00
2017-12-04T11:43:37.161Z,89.40
2017-12-04T11:46:04.668Z,89.90
2017-12-04T11:48:32.938Z,90.30
2017-12-04T11:51:01.244Z,90.10
2017-12-04T11:53:28.757Z,90.00
2017-12-04T11:55:56.257Z,90.20
2017-12-04T11:58:23.792Z,90.40
2017-12-04T12:00:51.684Z,90.30
2017-12-04T12:03:19.180Z,90.50
2017-12-04T12:05:47.472Z,90.20
2017-12-04T12:08:15.014Z,90.60
2017-12-04T12:10:42.569Z,90.60
2017-12-04T12:13:10.537Z,90.70
2017-12-04T12:15:38.513Z,90.50
2017-12-04T12:18:06.661Z,90.70
2017-12-04T12:20:34.734Z,90.30
2017-12-04T12:23:02.907Z,90.10
2017-12-04T12:25:31.082Z,90.00
2017-12-04T12:27:59.262Z,89.20
2017-12-04T12:30:27.329Z,89.50
2017-12-04T12:32:55.390Z,90.00
2017-12-04T12:35:23.466Z,89.90
2017-12-04T12:37:51.541Z,89.70
2017-12-04T12:40:19.716Z,89.90
2017-12-04T12:42:47.789Z,89.30
2017-12-04T12:45:15.965Z,89.30
2017-12-04T12:47:44.137Z,89.40
2017-12-04T12:50:12.196Z,89.20
2017-12-04T12:52:40.274Z,89.60
2017-12-04T12:55:08.330Z,89.60
2017-12-04T12:57:36.385Z,90.00
2017-12-04T13:00:05.226Z,90.40
2017-12-04T13:02:33.294Z,90.00
2017-12-04T13:05:01.361Z,90.00
2017-12-04T13:07:29.538Z,90.00
2017-12-04T13:09:57.601Z,90.20
2017-12-04T13:12:25.785Z,90.10
2017-12-04T13:14:53.853Z,90.20
2017-12-04T13:17:22.020Z,90.20
2017-12-04T13:19:50.070Z,90.40
2017-12-04T13:22:19.013Z,90.70
2017-12-04T13:24:47.834Z,90.30
2017-12-04T13:27:16.670Z,90.60
2017-12-04T13:29:44.846Z,90.40
2017-12-04T13:32:24.698Z,90.40
2017-12-04T13:35:05.969Z,90.60
2017-12-04T13:37:34.045Z,90.50
2017-12-04T13:40:02.113Z,90.70
2017-12-04T13:42:30.187Z,91.00
2017-12-04T13:44:58.622Z,91.00
2017-12-04T13:47:27.490Z,91.10
2017-12-04T13:49:55.542Z,90.80
2017-12-04T13:52:23.598Z,90.90
2017-12-04T13:54:52.382Z,91.20
2017-12-04T13:57:20.442Z,91.20
2017-12-04T13:59:48.529Z,91.30
2017-12-04T14:02:16.580Z,91.30
2017-12-04T14:04:44.640Z,91.40
2017-12-04T14:07:13.473Z,91.70
2017-12-04T14:09:41.577Z,91.50
2017-12-04T14:12:09.633Z,91.50
2017-12-04T14:14:37.678Z,91.50
2017-12-04T14:17:05.730Z,91.20
2017-12-04T14:19:34.248Z,91.00
2017-12-04T14:22:03.025Z,91.00
2017-12-04T14:24:31.510Z,90.60
2017-12-04T14:26:59.578Z,90.50
2017-12-04T14:29:27.660Z,90.60
2017-12-04T14:31:55.715Z,90.70
2017-12-04T14:34:23.795Z,90.60
2017-12-04T14:36:51.863Z,90.50
2017-12-04T14:39:19.948Z,90.50
2017-12-04T14:41:47.985Z,90.50
2017-12-04T14:44:16.186Z,90.30
2017-12-04T14:46:44.625Z,90.50
2017-12-04T14:49:13.566Z,90.80
2017-12-04T14:51:41.628Z,90.80
2017-12-04T14:54:09.693Z,90.80
2017-12-04T14:56:38.186Z,90.80
2017-12-04T14:59:06.233Z,90.80
2017-12-04T15:01:35.052Z,90.70
2017-12-04T15:04:03.224Z,90.80
2017-12-04T15:06:31.396Z,91.10
2017-12-04T15:08:59.457Z,91.10
2017-12-04T15:11:27.538Z,91.10
2017-12-04T15:13:55.619Z,91.20
2017-12-04T15:16:23.798Z,91.20
2017-12-04T15:18:51.958Z,91.10
2017-12-04T15:21:20.025Z,91.20
2017-12-04T15:23:48.085Z,91.30
2017-12-04T15:26:16.129Z,91.20
2017-12-04T15:28:45.053Z,91.40
2017-12-04T15:31:13.110Z,91.20
2017-12-04T15:33:41.558Z,91.60
2017-12-04T15:36:09.609Z,91.50
2017-12-04T15:38:37.753Z,92.10
2017-12-04T15:41:05.797Z,92.60
2017-12-04T15:43:34.719Z,93.30
2017-12-04T15:46:03.905Z,93.40
2017-12-04T15:48:31.994Z,93.20
2017-12-04T15:51:00.062Z,93.30
2017-12-04T15:53:28.110Z,92.60
2017-12-04T15:55:56.190Z,92.90
2017-12-04T15:58:24.240Z,92.60
2017-12-04T16:00:52.758Z,92.70
2017-12-04T16:03:20.817Z,92.90
2017-12-04T16:05:48.881Z,92.50
2017-12-04T16:08:16.973Z,92.20
2017-12-04T16:10:45.025Z,92.50
2017-12-04T16:13:13.092Z,92.10
2017-12-04T16:15:41.173Z,92.10
2017-12-04T16:18:09.221Z,92.40
2017-12-04T16:20:38.042Z,92.80
2017-12-04T16:23:06.097Z,92.50
2017-12-04T16:25:34.141Z,92.80
2017-12-04T16:28:02.202Z,92.50
2017-12-04T16:30:30.286Z,92.40
2017-12-04T16:32:58.342Z,91.80
2017-12-04T16:35:26.402Z,91.90
2017-12-04T16:37:54.962Z,91.90
2017-12-04T16:40:23.010Z,91.70
2017-12-04T16:42:51.917Z,92.00
2017-12-04T16:45:19.994Z,91.90
2017-12-04T16:47:49.185Z,92.00
2017-12-04T16:50:17.238Z,91.90
2017-12-04T16:52:46.148Z,91.80
2017-12-04T16:55:14.202Z,91.60
2017-12-04T16:57:43.116Z,91.80
2017-12-04T17:00:11.194Z,91.60
2017-12-04T17:02:39.258Z,91.40
2017-12-04T17:05:07.309Z,91.20
2017-12-04T17:07:36.224Z,91.50
2017-12-04T17:10:04.397Z,90.70
2017-12-04T17:12:32.458Z,90.80
2017-12-04T17:15:00.547Z,91.00
2017-12-04T17:17:28.729Z,90.60
2017-12-04T17:19:56.789Z,90.90
2017-12-04T17:22:24.845Z,90.90
2017-12-04T17:24:53.301Z,90.50
2017-12-04T17:27:21.794Z,90.60
2017-12-04T17:29:50.728Z,90.30
2017-12-04T17:32:18.890Z,90.30
2017-12-04T17:34:46.976Z,90.40
2017-12-04T17:37:15.038Z,90.60
2017-12-04T17:39:43.211Z,90.90
2017-12-04T17:42:11.277Z,90.80
2017-12-04T17:44:39.502Z,91.20
2017-12-04T17:47:07.806Z,90.90
2017-12-04T17:49:36.740Z,91.30
2017-12-04T17:52:04.810Z,91.10
2017-12-04T17:54:32.878Z,90.90
2017-12-04T17:57:01.158Z,91.00
2017-12-04T17:59:30.037Z,91.40
2017-12-04T18:01:58.920Z,91.10
2017-12-04T18:04:26.977Z,91.10
2017-12-04T18:06:55.044Z,91.00
2017-12-04T18:09:23.132Z,90.90
2017-12-04T18:11:51.372Z,90.80
2017-12-04T18:14:20.195Z,91.50
2017-12-04T18:16:48.291Z,91.20
2017-12-04T18:19:16.333Z,90.90
2017-12-04T18:21:44.415Z,90.80
2017-12-04T18:24:12.602Z,90.90
2017-12-04T18:26:40.809Z,91.00
2017-12-04T18:29:09.060Z,90.80
2017-12-04T18:31:38.464Z,90.90
2017-12-04T18:34:07.658Z,90.80
2017-12-04T18:36:35.729Z,90.70
2017-12-04T18:39:03.873Z,90.90
2017-12-04T18:41:32.041Z,90.30
2017-12-04T18:44:00.979Z,90.70
2017-12-04T18:46:30.576Z,90.50
2017-12-04T18:49:00.312Z,90.90
2017-12-04T18:51:28.898Z,90.80
2017-12-04T18:53:57.448Z,90.70
2017-12-04T18:56:26.021Z,90.80
2017-12-04T18:58:55.182Z,90.80
2017-12-04T19:01:23.242Z,90.70
2017-12-04T19:03:51.793Z,90.80
2017-12-04T19:06:20.277Z,91.00
2017-12-04T19:08:49.789Z,90.90
2017-12-04T19:11:17.845Z,90.60
2017-12-04T19:13:46.641Z,90.50
2017-12-04T19:16:15.494Z,90.60
2017-12-04T19:18:44.474Z,90.30
2017-12-04T19:21:12.637Z,90.40
2017-12-04T19:23:41.644Z,90.50
2017-12-04T19:26:10.130Z,90.60
2017-12-04T19:28:38.190Z,90.70
2017-12-04T19:31:06.730Z,90.30
2017-12-04T19:33:35.652Z,90.30
2017-12-04T19:36:03.859Z,90.50
2017-12-04T19:38:32.659Z,90.50
2017-12-04T19:41:01.595Z,90.80
2017-12-04T19:43:29.937Z,90.40
2017-12-04T19:45:59.294Z,90.80
2017-12-04T19:48:28.177Z,90.80
2017-12-04T19:50:56.638Z,90.70
2017-12-04T19:53:25.453Z,91.40
2017-12-04T19:55:53.925Z,90.70
2017-12-04T19:58:21.985Z,90.60
2017-12-04T20:00:50.049Z,91.00
2017-12-04T20:03:18.533Z,91.00
2017-12-04T20:05:46.712Z,90.50
2017-12-04T20:08:15.161Z,90.70
2017-12-04T20:10:43.218Z,90.40
2017-12-04T20:13:12.157Z,90.70
2017-12-04T20:15:40.983Z,90.70
2017-12-04T20:18:10.574Z,90.60
2017-12-04T20:20:39.474Z,90.20
2017-12-04T20:23:08.301Z,90.40
2017-12-04T20:25:36.373Z,90.50
2017-12-04T20:28:05.281Z,90.70
2017-12-04T20:30:33.764Z,90.60
2017-12-04T20:33:02.605Z,90.70
2017-12-04T20:35:32.177Z,90.80
2017-12-04T20:38:01.435Z,91.00
2017-12-04T20:40:30.274Z,91.30
2017-12-04T20:42:58.732Z,90.70
2017-12-04T20:45:26.801Z,90.70
2017-12-04T20:47:54.906Z,90.80
2017-12-04T20:50:22.974Z,91.00
2017-12-04T20:52:51.852Z,88.30
2017-12-04T20:55:19.937Z,91.10
2017-12-04T20:57:48.009Z,91.00
2017-12-04T21:00:16.066Z,91.10
2017-12-04T21:02:45.937Z,90.70
2017-12-04T21:05:14.051Z,90.70
2017-12-04T21:07:50.922Z,90.60
2017-12-04T21:10:30.938Z,90.60
2017-12-04T21:13:11.718Z,91.10
2017-12-04T21:15:52.541Z,90.00
2017-12-04T21:18:21.106Z,90.40
2017-12-04T21:20:49.166Z,90.40
2017-12-04T21:23:17.666Z,90.40
2017-12-04T21:25:46.881Z,91.50
2017-12-04T21:28:14.948Z,91.30
2017-12-04T21:30:43.509Z,92.00
2017-12-04T21:33:11.581Z,91.30
2017-12-04T21:35:40.422Z,90.50
2017-12-04T21:38:08.878Z,90.80
2017-12-04T21:40:37.342Z,90.90
2017-12-04T21:43:06.161Z,90.40
2017-12-04T21:45:34.716Z,90.40
2017-12-04T21:48:02.774Z,90.50
2017-12-04T21:50:31.266Z,90.20
2017-12-04T21:52:59.328Z,90.60
2017-12-04T21:55:28.553Z,91.10
2017-12-04T21:57:57.117Z,90.40
2017-12-04T22:00:25.922Z,90.60
2017-12-04T22:02:54.807Z,90.60
2017-12-04T22:05:22.984Z,90.70
2017-12-04T22:07:51.872Z,90.90
2017-12-04T22:10:20.344Z,91.00
2017-12-04T22:12:49.170Z,91.00
2017-12-04T22:15:17.305Z,91.00
2017-12-04T22:17:45.781Z,91.00
2017-12-04T22:20:13.861Z,91.00
2017-12-04T22:22:42.034Z,90.60
2017-12-04T22:25:10.090Z,91.00
2017-12-04T22:27:38.174Z,91.10
2017-12-04T22:30:06.249Z,90.80
2017-12-04T22:32:34.322Z,90.70
2017-12-04T22:35:02.508Z,90.80
2017-12-04T22:37:30.186Z,90.70
2017-12-04T22:39:57.736Z,90.90
2017-12-04T22:42:25.263Z,90.90
2017-12-04T22:44:53.263Z,90.80
2017-12-04T22:47:20.785Z,90.60
2017-12-04T22:49:49.041Z,90.60
2017-12-04T22:52:17.034Z,90.20
2017-12-04T22:54:45.398Z,90.60
2017-12-04T22:57:12.913Z,90.10
2017-12-04T22:59:40.450Z,88.60
2017-12-04T23:02:07.969Z,88.10
2017-12-04T23:04:35.593Z,88.80
2017-12-04T23:07:03.153Z,89.30
2017-12-04T23:09:30.672Z,89.10
2017-12-04T23:11:58.185Z,89.60
2017-12-04T23:14:26.482Z,90.40
2017-12-04T23:16:54.781Z,89.50
2017-12-04T23:19:22.873Z,89.50
2017-12-04T23:21:50.927Z,90.00
2017-12-04T23:24:19.000Z,89.80
2017-12-04T23:26:47.054Z,89.00
2017-12-04T23:29:15.877Z,89.90
2017-12-04T23:31:44.049Z,89.70
2017-12-04T23:34:12.101Z,90.00
2017-12-04T23:36:40.178Z,89.30
2017-12-04T23:39:08.237Z,89.10
2017-12-04T23:41:36.314Z,89.90
2017-12-04T23:44:04.373Z,89.60
2017-12-04T23:46:33.306Z,89.60
2017-12-04T23:49:01.478Z,89.40
2017-12-04T23:51:29.542Z,88.70
2017-12-04T23:53:57.600Z,90.30
2017-12-04T23:56:25.686Z,90.10
2017-12-04T23:58:54.585Z,89.30
